createdAt,value
2017-02-26T00:00:22.532Z,1006.1
2017-02-26T00:01:02.995Z,1005.91
2017-02-26T00:01:43.528Z,1006.01
2017-02-26T00:02:23.956Z,1006.11
2017-02-26T00:03:04.477Z,1005.92
2017-02-26T00:03:44.919Z,1005.91
2017-02-26T00:04:25.425Z,1005.86
2017-02-26T00:05:05.891Z,1006.01
2017-02-26T00:05:46.379Z,1006.13
2017-02-26T00:06:26.844Z,1006.21
2017-02-26T00:07:07.316Z,1005.95
2017-02-26T00:07:47.791Z,1005.82
2017-02-26T00:08:28.289Z,1006
2017-02-26T00:09:08.767Z,1005.94
2017-02-26T00:09:49.240Z,1005.87
2017-02-26T00:10:29.670Z,1005.89
2017-02-26T00:11:10.134Z,1005.9
2017-02-26T00:11:50.793Z,1006.14
2017-02-26T00:12:31.285Z,1005.9
2017-02-26T00:13:11.724Z,1005.78
2017-02-26T00:13:52.196Z,1005.78
2017-02-26T00:14:32.664Z,1005.85
2017-02-26T00:15:13.218Z,1005.85
2017-02-26T00:15:53.610Z,1006
2017-02-26T00:16:34.074Z,1005.85
2017-02-26T00:17:14.559Z,1005.86
2017-02-26T00:17:55.044Z,1005.88
2017-02-26T00:18:35.510Z,1005.76
2017-02-26T00:19:15.966Z,1005.6
2017-02-26T00:19:56.442Z,1005.69
2017-02-26T00:20:36.879Z,1005.8
2017-02-26T00:21:17.385Z,1005.83
2017-02-26T00:21:57.849Z,1005.95
2017-02-26T00:22:38.296Z,1005.88
2017-02-26T00:23:18.764Z,1005.83
2017-02-26T00:23:59.243Z,1005.9
2017-02-26T00:24:39.715Z,1005.68
2017-02-26T00:25:20.222Z,1005.8
2017-02-26T00:26:00.666Z,1005.84
2017-02-26T00:28:16.898Z,1005.66
2017-02-26T00:30:10.091Z,1005.63
2017-02-26T00:30:58.778Z,1005.9
2017-02-26T00:31:43.667Z,1005.97
2017-02-26T00:32:24.154Z,1005.88
2017-02-26T00:33:04.613Z,1005.83
2017-02-26T00:33:45.070Z,1005.76
2017-02-26T00:34:25.541Z,1005.85
2017-02-26T00:35:06.018Z,1005.85
2017-02-26T00:35:46.477Z,1006.05
2017-02-26T00:36:26.990Z,1005.68
2017-02-26T00:37:07.411Z,1005.71
2017-02-26T00:37:47.919Z,1005.83
2017-02-26T00:38:28.401Z,1005.84
2017-02-26T00:39:08.859Z,1005.73
2017-02-26T00:39:49.344Z,1005.61
2017-02-26T00:40:29.852Z,1005.73
2017-02-26T00:41:10.295Z,1005.68
2017-02-26T00:41:50.823Z,1005.67
2017-02-26T00:42:31.279Z,1005.73
2017-02-26T00:43:11.766Z,1005.92
2017-02-26T00:43:52.235Z,1005.62
2017-02-26T00:44:32.699Z,1005.74
2017-02-26T00:45:13.259Z,1006
2017-02-26T00:45:53.675Z,1005.96
2017-02-26T00:46:34.119Z,1005.68
2017-02-26T00:47:14.616Z,1006.02
2017-02-26T00:47:55.093Z,1005.68
2017-02-26T00:48:35.559Z,1005.62
2017-02-26T00:49:16.033Z,1005.85
2017-02-26T00:49:56.459Z,1005.78
2017-02-26T00:50:36.959Z,1005.68
2017-02-26T00:51:17.464Z,1005.71
2017-02-26T00:51:57.875Z,1005.7
2017-02-26T00:52:38.354Z,1005.66
2017-02-26T00:53:18.843Z,1005.59
2017-02-26T00:53:59.295Z,1005.75
2017-02-26T00:54:39.766Z,1005.74
2017-02-26T00:55:20.292Z,1005.49
2017-02-26T00:56:00.698Z,1005.56
2017-02-26T00:56:41.172Z,1005.69
2017-02-26T00:57:21.637Z,1005.76
2017-02-26T00:58:02.133Z,1005.64
2017-02-26T00:58:42.607Z,1005.53
2017-02-26T00:59:23.103Z,1005.6
2017-02-26T01:00:03.580Z,1005.62
2017-02-26T01:00:44.071Z,1005.66
2017-02-26T01:01:24.503Z,1005.81
2017-02-26T01:02:05.013Z,1005.68
2017-02-26T01:02:45.473Z,1005.77
2017-02-26T01:03:25.940Z,1005.68
2017-02-26T01:04:06.433Z,1005.72
2017-02-26T01:04:46.931Z,1005.6
2017-02-26T01:05:27.372Z,1005.81
2017-02-26T01:06:07.848Z,1005.55
2017-02-26T01:06:48.321Z,1005.57
2017-02-26T01:07:28.774Z,1005.71
2017-02-26T01:08:09.259Z,1005.53
2017-02-26T01:08:49.730Z,1005.52
2017-02-26T01:09:30.201Z,1005.7
2017-02-26T01:10:10.699Z,1005.7
2017-02-26T01:10:51.121Z,1005.75
2017-02-26T01:11:31.617Z,1005.71
2017-02-26T01:12:12.116Z,1005.69
2017-02-26T01:12:52.578Z,1005.79
2017-02-26T01:13:33.054Z,1005.51
2017-02-26T01:14:13.585Z,1005.67
2017-02-26T01:14:54.065Z,1005.89
2017-02-26T01:15:34.521Z,1005.63
2017-02-26T01:16:15.005Z,1005.51
2017-02-26T01:16:55.477Z,1005.75
2017-02-26T01:17:35.944Z,1005.7
2017-02-26T01:18:16.421Z,1005.49
2017-02-26T01:18:56.913Z,1005.53
2017-02-26T01:19:37.396Z,1005.43
2017-02-26T01:20:17.913Z,1005.74
2017-02-26T01:20:58.385Z,1005.51
2017-02-26T01:21:38.853Z,1005.61
2017-02-26T01:22:19.330Z,1005.72
2017-02-26T01:22:59.823Z,1005.44
2017-02-26T01:23:40.296Z,1005.55
2017-02-26T01:24:20.777Z,1005.47
2017-02-26T01:25:01.265Z,1005.48
2017-02-26T01:25:41.715Z,1005.43
2017-02-26T01:26:22.206Z,1005.36
2017-02-26T01:27:02.671Z,1005.49
2017-02-26T01:27:43.157Z,1005.48
2017-02-26T01:28:23.665Z,1005.43
2017-02-26T01:29:04.141Z,1005.46
2017-02-26T01:29:44.555Z,1005.51
2017-02-26T01:30:25.038Z,1005.62
2017-02-26T01:31:05.509Z,1005.4
2017-02-26T01:31:45.976Z,1005.4
2017-02-26T01:32:26.455Z,1005.38
2017-02-26T01:33:06.910Z,1005.46
2017-02-26T01:33:47.392Z,1005.73
2017-02-26T01:34:27.867Z,1005.68
2017-02-26T01:35:08.350Z,1005.52
2017-02-26T01:35:48.856Z,1005.49
2017-02-26T01:36:29.322Z,1005.53
2017-02-26T01:37:09.803Z,1005.43
2017-02-26T01:37:50.287Z,1005.69
2017-02-26T01:38:30.743Z,1005.33
2017-02-26T01:39:11.303Z,1005.35
2017-02-26T01:39:51.762Z,1005.94
2017-02-26T01:40:32.208Z,1005.34
2017-02-26T01:41:12.689Z,1005.7
2017-02-26T01:41:53.154Z,1005.52
2017-02-26T01:42:33.639Z,1005.41
2017-02-26T01:43:14.125Z,1005.64
2017-02-26T01:43:57.168Z,1005.56
2017-02-26T01:44:37.665Z,1005.55
2017-02-26T01:45:18.160Z,1005.55
2017-02-26T01:45:58.640Z,1005.43
2017-02-26T01:46:39.180Z,1005.55
2017-02-26T01:47:19.611Z,1005.57
2017-02-26T01:48:00.121Z,1005.59
2017-02-26T01:48:40.621Z,1005.43
2017-02-26T01:49:21.084Z,1005.33
2017-02-26T01:50:01.527Z,1005.39
2017-02-26T01:50:42.018Z,1005.59
2017-02-26T01:51:22.527Z,1005.38
2017-02-26T01:52:02.979Z,1005.36
2017-02-26T01:52:43.440Z,1005.6
2017-02-26T01:53:23.940Z,1005.42
2017-02-26T01:54:04.408Z,1005.48
2017-02-26T01:54:44.847Z,1005.53
2017-02-26T01:55:25.296Z,1005.29
2017-02-26T01:56:05.790Z,1005.42
2017-02-26T01:56:46.235Z,1005.64
2017-02-26T01:57:26.718Z,1005.27
2017-02-26T01:58:07.205Z,1005.34
2017-02-26T01:58:47.701Z,1005.31
2017-02-26T01:59:28.144Z,1005.39
2017-02-26T02:00:08.650Z,1005.33
2017-02-26T02:00:49.115Z,1005.44
2017-02-26T02:01:29.611Z,1005.32
2017-02-26T02:02:10.127Z,1005.36
2017-02-26T02:02:50.599Z,1005.49
2017-02-26T02:03:31.047Z,1005.36
2017-02-26T02:04:11.518Z,1005.23
2017-02-26T02:04:51.967Z,1005.36
2017-02-26T02:05:32.429Z,1005.31
2017-02-26T02:06:12.923Z,1005.19
2017-02-26T02:06:53.407Z,1005.26
2017-02-26T02:07:33.890Z,1005.38
2017-02-26T02:08:14.322Z,1005.42
2017-02-26T02:08:54.823Z,1005.47
2017-02-26T02:09:35.289Z,1005.36
2017-02-26T02:10:15.744Z,1005.23
2017-02-26T02:10:56.246Z,1005.56
2017-02-26T02:11:36.706Z,1005.4
2017-02-26T02:12:17.192Z,1005.11
2017-02-26T02:12:57.653Z,1005.15
2017-02-26T02:13:38.142Z,1005.13
2017-02-26T02:14:18.627Z,1005.35
2017-02-26T02:14:59.110Z,1005.26
2017-02-26T02:15:39.578Z,1005.32
2017-02-26T02:16:20.075Z,1005.53
2017-02-26T02:17:00.561Z,1005.11
2017-02-26T02:17:41.024Z,1005.1
2017-02-26T02:18:21.507Z,1005.13
2017-02-26T02:19:01.965Z,1005.13
2017-02-26T02:19:42.435Z,1005.19
2017-02-26T02:20:22.888Z,1005.21
2017-02-26T02:21:03.407Z,1005.25
2017-02-26T02:21:43.871Z,1005.23
2017-02-26T02:22:24.370Z,1005.19
2017-02-26T02:23:04.833Z,1005.15
2017-02-26T02:23:45.289Z,1005.11
2017-02-26T02:24:25.763Z,1005.4
2017-02-26T02:25:06.266Z,1005.3
2017-02-26T02:25:46.722Z,1005.05
2017-02-26T02:26:27.190Z,1005.26
2017-02-26T02:27:07.667Z,1005.19
2017-02-26T02:27:48.170Z,1005.09
2017-02-26T02:28:28.714Z,1005.06
2017-02-26T02:29:09.205Z,1005.22
2017-02-26T02:29:49.639Z,1005.41
2017-02-26T02:30:30.108Z,1005.1
2017-02-26T02:31:10.577Z,1005.28
2017-02-26T02:31:51.071Z,1005.08
2017-02-26T02:32:31.531Z,1005.07
2017-02-26T02:33:12.012Z,1005.21
2017-02-26T02:33:52.461Z,1005.23
2017-02-26T02:34:32.976Z,1005.1
2017-02-26T02:35:13.494Z,1005.17
2017-02-26T02:35:53.949Z,1005.16
2017-02-26T02:36:34.432Z,1005.1
2017-02-26T02:37:14.907Z,1005.06
2017-02-26T02:37:55.396Z,1004.83
2017-02-26T02:38:35.846Z,1005.11
2017-02-26T02:39:16.336Z,1005.25
2017-02-26T02:39:56.823Z,1005.39
2017-02-26T02:40:37.265Z,1005.04
2017-02-26T02:41:17.756Z,1005.24
2017-02-26T02:41:58.246Z,1005.12
2017-02-26T02:42:38.716Z,1005.1
2017-02-26T02:43:19.213Z,1005.15
2017-02-26T02:43:59.697Z,1005.14
2017-02-26T02:44:40.183Z,1005.22
2017-02-26T02:45:20.673Z,1005.14
2017-02-26T02:46:01.187Z,1005.26
2017-02-26T02:46:41.635Z,1005.36
2017-02-26T02:47:22.130Z,1005.21
2017-02-26T02:48:02.582Z,1005.03
2017-02-26T02:48:43.035Z,1005.28
2017-02-26T02:49:23.572Z,1005.36
2017-02-26T02:50:04.029Z,1005.03
2017-02-26T02:50:44.532Z,1005.07
2017-02-26T02:51:24.976Z,1005.07
2017-02-26T02:52:05.450Z,1005.23
2017-02-26T02:52:45.940Z,1005.01
2017-02-26T02:53:26.405Z,1005.12
2017-02-26T02:54:06.916Z,1005.08
2017-02-26T02:54:47.348Z,1004.95
2017-02-26T02:55:27.830Z,1004.87
2017-02-26T02:56:08.277Z,1005.14
2017-02-26T02:56:48.777Z,1004.99
2017-02-26T02:57:29.262Z,1004.97
2017-02-26T02:58:09.736Z,1004.85
2017-02-26T02:58:50.224Z,1004.98
2017-02-26T02:59:30.757Z,1005.11
2017-02-26T03:00:11.236Z,1005.03
2017-02-26T03:00:51.681Z,1005.06
2017-02-26T03:01:32.145Z,1004.97
2017-02-26T03:02:12.604Z,1005.03
2017-02-26T03:02:53.075Z,1004.98
2017-02-26T03:03:33.565Z,1004.97
2017-02-26T03:04:13.998Z,1004.9
2017-02-26T03:04:54.485Z,1004.94
2017-02-26T03:05:34.954Z,1004.96
2017-02-26T03:06:15.423Z,1005.1
2017-02-26T03:06:55.882Z,1005.17
2017-02-26T03:07:36.366Z,1004.86
2017-02-26T03:08:16.882Z,1005.05
2017-02-26T03:08:57.361Z,1005.06
2017-02-26T03:09:37.826Z,1005
2017-02-26T03:10:18.320Z,1005.01
2017-02-26T03:10:58.848Z,1004.74
2017-02-26T03:11:39.311Z,1004.83
2017-02-26T03:12:19.830Z,1004.87
2017-02-26T03:13:00.291Z,1005.04
2017-02-26T03:13:40.749Z,1004.74
2017-02-26T03:14:21.256Z,1004.86
2017-02-26T03:15:01.749Z,1004.69
2017-02-26T03:15:42.208Z,1004.89
2017-02-26T03:16:22.722Z,1004.78
2017-02-26T03:17:03.167Z,1004.86
2017-02-26T03:17:43.714Z,1005.1
2017-02-26T03:18:24.176Z,1004.95
2017-02-26T03:19:04.644Z,1004.77
2017-02-26T03:19:45.127Z,1004.79
2017-02-26T03:20:25.635Z,1004.76
2017-02-26T03:21:06.098Z,1004.71
2017-02-26T03:21:46.567Z,1004.79
2017-02-26T03:22:27.029Z,1004.69
2017-02-26T03:23:07.494Z,1004.87
2017-02-26T03:23:47.984Z,1005.02
2017-02-26T03:24:28.479Z,1004.83
2017-02-26T03:25:08.917Z,1004.8
2017-02-26T03:25:49.419Z,1004.93
2017-02-26T03:26:29.852Z,1004.84
2017-02-26T03:27:10.377Z,1004.63
2017-02-26T03:27:50.970Z,1004.68
2017-02-26T03:28:31.464Z,1004.9
2017-02-26T03:29:11.968Z,1004.74
2017-02-26T03:29:52.437Z,1004.97
2017-02-26T03:30:32.902Z,1004.72
2017-02-26T03:31:13.385Z,1004.67
2017-02-26T03:31:53.858Z,1004.68
2017-02-26T03:32:34.336Z,1004.81
2017-02-26T03:33:16.431Z,1004.9
2017-02-26T03:33:56.915Z,1004.78
2017-02-26T03:34:37.397Z,1004.55
2017-02-26T03:35:17.855Z,1004.65
2017-02-26T03:35:58.346Z,1004.8
2017-02-26T03:36:38.831Z,1004.77
2017-02-26T03:37:19.296Z,1004.81
2017-02-26T03:37:59.800Z,1004.67
2017-02-26T03:38:40.289Z,1004.6
2017-02-26T03:39:20.744Z,1004.75
2017-02-26T03:40:01.237Z,1004.83
2017-02-26T03:40:41.696Z,1004.8
2017-02-26T03:41:22.199Z,1004.67
2017-02-26T03:42:02.704Z,1004.64
2017-02-26T03:42:43.199Z,1004.72
2017-02-26T03:43:23.681Z,1004.62
2017-02-26T03:44:04.121Z,1004.7
2017-02-26T03:44:44.653Z,1004.92
2017-02-26T03:45:25.140Z,1004.68
2017-02-26T03:46:05.606Z,1004.79
2017-02-26T03:46:46.108Z,1004.75
2017-02-26T03:47:26.561Z,1004.83
2017-02-26T03:48:07.036Z,1004.57
2017-02-26T03:48:47.511Z,1004.66
2017-02-26T03:49:27.997Z,1004.66
2017-02-26T03:50:08.484Z,1004.77
2017-02-26T03:50:48.964Z,1004.82
2017-02-26T03:51:29.454Z,1004.76
2017-02-26T03:52:09.944Z,1004.85
2017-02-26T03:52:50.428Z,1004.68
2017-02-26T03:53:30.901Z,1004.68
2017-02-26T03:54:11.383Z,1004.69
2017-02-26T03:54:51.856Z,1004.65
2017-02-26T03:55:32.313Z,1004.77
2017-02-26T03:56:12.825Z,1004.65
2017-02-26T03:56:53.273Z,1004.72
2017-02-26T03:57:33.747Z,1004.67
2017-02-26T03:58:14.256Z,1004.76
2017-02-26T03:58:54.736Z,1004.81
2017-02-26T03:59:35.225Z,1004.71
2017-02-26T04:00:15.711Z,1004.72
2017-02-26T04:00:56.176Z,1004.68
2017-02-26T04:01:36.633Z,1004.73
2017-02-26T04:02:17.111Z,1004.66
2017-02-26T04:02:57.645Z,1004.59
2017-02-26T04:03:38.100Z,1004.74
2017-02-26T04:04:18.578Z,1004.6
2017-02-26T04:04:59.047Z,1004.85
2017-02-26T04:05:39.533Z,1004.84
2017-02-26T04:06:20.024Z,1004.6
2017-02-26T04:07:00.499Z,1004.63
2017-02-26T04:07:40.955Z,1004.57
2017-02-26T04:08:21.456Z,1004.55
2017-02-26T04:09:01.914Z,1004.53
2017-02-26T04:09:42.400Z,1004.69
2017-02-26T04:10:22.892Z,1004.71
2017-02-26T04:11:03.387Z,1004.54
2017-02-26T04:11:43.982Z,1004.55
2017-02-26T04:12:24.440Z,1004.63
2017-02-26T04:13:04.928Z,1004.4
2017-02-26T04:13:45.422Z,1004.58
2017-02-26T04:14:25.873Z,1004.57
2017-02-26T04:15:06.353Z,1004.71
2017-02-26T04:15:46.821Z,1004.76
2017-02-26T04:16:27.294Z,1004.47
2017-02-26T04:17:07.757Z,1004.49
2017-02-26T04:17:48.240Z,1004.57
2017-02-26T04:18:28.703Z,1004.58
2017-02-26T04:19:09.196Z,1004.88
2017-02-26T04:19:49.677Z,1004.69
2017-02-26T04:20:30.158Z,1004.55
2017-02-26T04:21:10.635Z,1004.7
2017-02-26T04:21:51.131Z,1004.71
2017-02-26T04:22:31.592Z,1004.47
2017-02-26T04:23:12.062Z,1004.51
2017-02-26T04:23:52.563Z,1004.5
2017-02-26T04:24:33.017Z,1004.68
2017-02-26T04:25:13.560Z,1004.44
2017-02-26T04:25:54.005Z,1004.49
2017-02-26T04:26:34.446Z,1004.51
2017-02-26T04:27:14.912Z,1004.56
2017-02-26T04:27:55.401Z,1004.38
2017-02-26T04:28:35.892Z,1004.43
2017-02-26T04:29:16.353Z,1004.63
2017-02-26T04:29:56.817Z,1004.46
2017-02-26T04:30:37.318Z,1004.55
2017-02-26T04:31:17.797Z,1004.43
2017-02-26T04:31:58.238Z,1004.49
2017-02-26T04:32:38.764Z,1004.6
2017-02-26T04:33:19.238Z,1004.45
2017-02-26T04:33:59.736Z,1004.57
2017-02-26T04:34:40.205Z,1004.46
2017-02-26T04:35:20.762Z,1004.56
2017-02-26T04:36:01.207Z,1004.49
2017-02-26T04:36:41.707Z,1004.4
2017-02-26T04:37:22.179Z,1004.47
2017-02-26T04:38:02.648Z,1004.75
2017-02-26T04:38:43.128Z,1004.47
2017-02-26T04:39:23.592Z,1004.43
2017-02-26T04:40:04.071Z,1004.58
2017-02-26T04:40:44.557Z,1004.46
2017-02-26T04:41:25.035Z,1004.41
2017-02-26T04:42:05.522Z,1004.48
2017-02-26T04:42:46.023Z,1004.48
2017-02-26T04:43:26.474Z,1004.54
2017-02-26T04:44:06.972Z,1004.42
2017-02-26T04:44:47.457Z,1004.58
2017-02-26T04:45:27.916Z,1004.55
2017-02-26T04:46:08.416Z,1004.52
2017-02-26T04:46:48.877Z,1004.56
2017-02-26T04:47:29.378Z,1004.49
2017-02-26T04:48:09.886Z,1004.58
2017-02-26T04:48:50.340Z,1004.46
2017-02-26T04:49:30.923Z,1004.41
2017-02-26T04:50:11.441Z,1004.61
2017-02-26T04:50:51.907Z,1004.68
2017-02-26T04:51:32.387Z,1004.54
2017-02-26T04:52:12.832Z,1004.54
2017-02-26T04:52:53.316Z,1004.48
2017-02-26T04:53:33.800Z,1004.49
2017-02-26T04:54:14.269Z,1004.46
2017-02-26T04:54:54.747Z,1004.55
2017-02-26T04:55:35.221Z,1004.47
2017-02-26T04:56:15.693Z,1004.56
2017-02-26T04:56:56.168Z,1004.47
2017-02-26T04:57:36.650Z,1004.49
2017-02-26T04:58:17.100Z,1004.54
2017-02-26T04:58:57.639Z,1004.57
2017-02-26T04:59:38.072Z,1004.41
2017-02-26T05:00:18.549Z,1004.49
2017-02-26T05:00:59.048Z,1004.45
2017-02-26T05:01:39.527Z,1004.41
2017-02-26T05:02:19.978Z,1004.44
2017-02-26T05:03:00.471Z,1004.43
2017-02-26T05:03:40.938Z,1004.45
2017-02-26T05:04:21.406Z,1004.39
2017-02-26T05:05:01.892Z,1004.41
2017-02-26T05:05:42.388Z,1004.4
2017-02-26T05:06:22.846Z,1004.45
2017-02-26T05:07:03.342Z,1004.44
2017-02-26T05:07:43.827Z,1004.5
2017-02-26T05:08:24.305Z,1004.4
2017-02-26T05:09:04.832Z,1004.4
2017-02-26T05:09:45.294Z,1004.47
2017-02-26T05:10:25.762Z,1004.5
2017-02-26T05:11:06.251Z,1004.52
2017-02-26T05:11:46.720Z,1004.4
2017-02-26T05:12:27.180Z,1004.5
2017-02-26T05:13:07.650Z,1004.49
2017-02-26T05:13:48.110Z,1004.39
2017-02-26T05:14:28.637Z,1004.49
2017-02-26T05:15:09.082Z,1004.48
2017-02-26T05:15:49.573Z,1004.41
2017-02-26T05:16:30.020Z,1004.47
2017-02-26T05:17:10.518Z,1004.52
2017-02-26T05:17:50.990Z,1004.38
2017-02-26T05:18:31.480Z,1004.5
2017-02-26T05:19:11.947Z,1004.52
2017-02-26T05:19:52.428Z,1004.57
2017-02-26T05:20:32.909Z,1004.44
2017-02-26T05:21:13.378Z,1004.49
2017-02-26T05:21:53.834Z,1004.49
2017-02-26T05:22:34.313Z,1004.36
2017-02-26T05:23:14.821Z,1004.52
2017-02-26T05:23:55.287Z,1004.44
2017-02-26T05:24:35.764Z,1004.41
2017-02-26T05:25:16.234Z,1004.47
2017-02-26T05:25:56.743Z,1004.36
2017-02-26T05:26:37.200Z,1004.49
2017-02-26T05:27:17.681Z,1004.32
2017-02-26T05:27:58.163Z,1004.45
2017-02-26T05:28:38.638Z,1004.34
2017-02-26T05:29:19.130Z,1004.3
2017-02-26T05:29:59.611Z,1004.29
2017-02-26T05:30:40.072Z,1004.31
2017-02-26T05:31:20.541Z,1004.34
2017-02-26T05:32:01.024Z,1004.39
2017-02-26T05:32:41.503Z,1004.39
2017-02-26T05:33:21.981Z,1004.41
2017-02-26T05:34:02.454Z,1004.29
2017-02-26T05:34:42.952Z,1004.28
2017-02-26T05:35:23.429Z,1004.26
2017-02-26T05:36:03.910Z,1004.31
2017-02-26T05:36:44.415Z,1004.24
2017-02-26T05:37:24.891Z,1004.32
2017-02-26T05:38:05.377Z,1004.3
2017-02-26T05:38:45.858Z,1004.25
2017-02-26T05:39:26.343Z,1004.41
2017-02-26T05:40:06.793Z,1004.37
2017-02-26T05:40:47.283Z,1004.3
2017-02-26T05:41:27.764Z,1004.37
2017-02-26T05:42:08.245Z,1004.28
2017-02-26T05:42:48.729Z,1004.57
2017-02-26T05:43:29.229Z,1004.39
2017-02-26T05:44:09.683Z,1004.32
2017-02-26T05:44:50.168Z,1004.38
2017-02-26T05:45:30.652Z,1004.33
2017-02-26T05:46:11.121Z,1004.31
2017-02-26T05:46:51.594Z,1004.29
2017-02-26T05:47:32.070Z,1004.4
2017-02-26T05:48:12.561Z,1004.38
2017-02-26T05:48:53.020Z,1004.4
2017-02-26T05:49:33.508Z,1004.42
2017-02-26T05:50:14.055Z,1004.33
2017-02-26T05:50:54.531Z,1004.35
2017-02-26T05:51:34.982Z,1004.35
2017-02-26T05:52:15.468Z,1004.3
2017-02-26T05:52:55.934Z,1004.47
2017-02-26T05:53:36.440Z,1004.27
2017-02-26T05:54:16.920Z,1004.32
2017-02-26T05:54:57.418Z,1004.33
2017-02-26T05:55:37.896Z,1004.4
2017-02-26T05:56:18.387Z,1004.44
2017-02-26T05:56:58.850Z,1004.31
2017-02-26T05:57:39.345Z,1004.58
2017-02-26T05:58:19.785Z,1004.55
2017-02-26T05:59:00.267Z,1004.53
2017-02-26T05:59:40.755Z,1004.43
2017-02-26T06:00:21.222Z,1004.44
2017-02-26T06:01:01.696Z,1004.44
2017-02-26T06:01:42.162Z,1004.53
2017-02-26T06:02:22.618Z,1004.49
2017-02-26T06:03:03.107Z,1004.8
2017-02-26T06:03:43.575Z,1004.35
2017-02-26T06:04:24.086Z,1004.37
2017-02-26T06:05:04.570Z,1004.32
2017-02-26T06:05:45.095Z,1004.38
2017-02-26T06:06:25.596Z,1004.37
2017-02-26T06:07:06.040Z,1004.39
2017-02-26T06:07:46.527Z,1004.3
2017-02-26T06:08:27.018Z,1004.36
2017-02-26T06:09:07.496Z,1004.32
2017-02-26T06:09:47.999Z,1004.39
2017-02-26T06:10:28.474Z,1004.39
2017-02-26T06:11:08.970Z,1004.36
2017-02-26T06:11:49.442Z,1004.56
2017-02-26T06:12:29.900Z,1004.52
2017-02-26T06:13:10.397Z,1004.31
2017-02-26T06:13:50.834Z,1004.45
2017-02-26T06:14:31.313Z,1004.34
2017-02-26T06:15:11.825Z,1004.28
2017-02-26T06:15:52.306Z,1004.43
2017-02-26T06:16:32.797Z,1004.3
2017-02-26T06:17:13.274Z,1004.32
2017-02-26T06:17:53.767Z,1004.31
2017-02-26T06:18:34.200Z,1004.4
2017-02-26T06:19:14.690Z,1004.42
2017-02-26T06:19:55.165Z,1004.31
2017-02-26T06:20:35.659Z,1004.29
2017-02-26T06:21:16.128Z,1004.27
2017-02-26T06:21:56.600Z,1004.43
2017-02-26T06:22:37.072Z,1004.31
2017-02-26T06:23:17.514Z,1004.51
2017-02-26T06:23:57.995Z,1004.34
2017-02-26T06:24:38.467Z,1004.35
2017-02-26T06:25:18.956Z,1004.27
2017-02-26T06:25:59.456Z,1004.43
2017-02-26T06:26:39.937Z,1004.47
2017-02-26T06:27:20.417Z,1004.35
2017-02-26T06:28:00.901Z,1004.45
2017-02-26T06:28:41.368Z,1004.38
2017-02-26T06:29:21.840Z,1004.28
2017-02-26T06:30:02.324Z,1004.31
2017-02-26T06:30:42.836Z,1004.43
2017-02-26T06:31:23.315Z,1004.39
2017-02-26T06:32:03.808Z,1004.39
2017-02-26T06:32:44.279Z,1004.47
2017-02-26T06:33:24.769Z,1004.32
2017-02-26T06:34:05.250Z,1004.43
2017-02-26T06:34:45.729Z,1004.39
2017-02-26T06:35:26.208Z,1004.37
2017-02-26T06:36:06.732Z,1004.35
2017-02-26T06:36:47.244Z,1004.55
2017-02-26T06:37:27.702Z,1004.43
2017-02-26T06:38:08.168Z,1004.42
2017-02-26T06:38:48.647Z,1004.35
2017-02-26T06:39:29.105Z,1004.36
2017-02-26T06:40:09.590Z,1004.28
2017-02-26T06:40:50.093Z,1004.37
2017-02-26T06:41:30.572Z,1004.35
2017-02-26T06:42:11.047Z,1004.41
2017-02-26T06:42:51.514Z,1004.37
2017-02-26T06:43:31.999Z,1004.37
2017-02-26T06:44:12.497Z,1004.36
2017-02-26T06:44:52.957Z,1004.5
2017-02-26T06:45:33.459Z,1004.58
2017-02-26T06:46:13.986Z,1004.44
2017-02-26T06:46:54.460Z,1004.43
2017-02-26T06:47:34.932Z,1004.36
2017-02-26T06:48:15.400Z,1004.57
2017-02-26T06:48:55.879Z,1004.54
2017-02-26T06:49:36.399Z,1004.35
2017-02-26T06:50:16.861Z,1004.72
2017-02-26T06:50:57.338Z,1004.57
2017-02-26T06:51:37.851Z,1004.46
2017-02-26T06:52:18.307Z,1004.47
2017-02-26T06:52:58.818Z,1004.47
2017-02-26T06:53:39.302Z,1004.51
2017-02-26T06:54:19.767Z,1004.39
2017-02-26T06:55:00.271Z,1004.46
2017-02-26T06:55:40.751Z,1004.51
2017-02-26T06:56:21.238Z,1004.46
2017-02-26T06:57:01.702Z,1004.42
2017-02-26T06:57:42.212Z,1004.31
2017-02-26T06:58:22.693Z,1004.49
2017-02-26T06:59:03.160Z,1004.44
2017-02-26T06:59:43.661Z,1004.58
2017-02-26T07:00:24.126Z,1004.62
2017-02-26T07:01:04.611Z,1004.45
2017-02-26T07:01:45.108Z,1004.62
2017-02-26T07:02:25.616Z,1004.55
2017-02-26T07:03:06.090Z,1004.52
2017-02-26T07:03:46.597Z,1004.52
2017-02-26T07:04:27.025Z,1004.45
2017-02-26T07:05:07.521Z,1004.48
2017-02-26T07:05:48.017Z,1004.38
2017-02-26T07:06:28.503Z,1004.4
2017-02-26T07:07:08.955Z,1004.5
2017-02-26T07:07:49.451Z,1004.43
2017-02-26T07:08:29.898Z,1004.51
2017-02-26T07:09:10.372Z,1004.55
2017-02-26T07:09:50.865Z,1004.44
2017-02-26T07:10:31.330Z,1004.49
2017-02-26T07:11:11.812Z,1004.42
2017-02-26T07:11:52.325Z,1004.52
2017-02-26T07:12:32.797Z,1004.62
2017-02-26T07:13:13.307Z,1004.75
2017-02-26T07:13:53.781Z,1004.45
2017-02-26T07:14:34.309Z,1004.49
2017-02-26T07:15:14.744Z,1004.53
2017-02-26T07:15:55.217Z,1004.51
2017-02-26T07:16:35.698Z,1004.53
2017-02-26T07:17:16.165Z,1004.47
2017-02-26T07:17:56.652Z,1004.59
2017-02-26T07:18:37.119Z,1004.46
2017-02-26T07:19:17.607Z,1004.6
2017-02-26T07:19:58.082Z,1004.39
2017-02-26T07:20:38.587Z,1004.61
2017-02-26T07:21:19.066Z,1004.54
2017-02-26T07:21:59.531Z,1004.43
2017-02-26T07:22:40.036Z,1004.45
2017-02-26T07:23:20.530Z,1004.57
2017-02-26T07:24:01.001Z,1004.49
2017-02-26T07:24:41.480Z,1004.63
2017-02-26T07:25:21.941Z,1004.49
2017-02-26T07:26:02.465Z,1004.6
2017-02-26T07:26:42.942Z,1004.55
2017-02-26T07:27:23.440Z,1004.59
2017-02-26T07:28:03.919Z,1004.63
2017-02-26T07:28:44.384Z,1004.59
2017-02-26T07:29:24.866Z,1004.55
2017-02-26T07:30:05.338Z,1004.72
2017-02-26T07:30:45.833Z,1004.61
2017-02-26T07:31:26.311Z,1004.57
2017-02-26T07:32:06.763Z,1004.51
2017-02-26T07:32:47.237Z,1004.57
2017-02-26T07:33:27.690Z,1004.59
2017-02-26T07:34:08.181Z,1004.57
2017-02-26T07:34:48.627Z,1004.8
2017-02-26T07:35:29.147Z,1004.65
2017-02-26T07:36:09.605Z,1004.7
2017-02-26T07:36:50.099Z,1004.81
2017-02-26T07:37:30.575Z,1004.7
2017-02-26T07:38:11.055Z,1004.68
2017-02-26T07:38:51.538Z,1004.59
2017-02-26T07:39:32.008Z,1004.64
2017-02-26T07:40:12.483Z,1004.61
2017-02-26T07:40:52.952Z,1004.59
2017-02-26T07:41:33.402Z,1004.69
2017-02-26T07:42:13.901Z,1004.67
2017-02-26T07:42:54.360Z,1004.75
2017-02-26T07:43:34.834Z,1004.69
2017-02-26T07:44:15.324Z,1004.65
2017-02-26T07:44:55.792Z,1004.69
2017-02-26T07:45:36.280Z,1004.7
2017-02-26T07:46:16.770Z,1004.66
2017-02-26T07:46:57.237Z,1004.73
2017-02-26T07:47:37.670Z,1004.67
2017-02-26T07:48:18.153Z,1004.85
2017-02-26T07:48:58.610Z,1004.69
2017-02-26T07:49:39.091Z,1004.74
2017-02-26T07:50:19.566Z,1004.65
2017-02-26T07:51:00.055Z,1004.65
2017-02-26T07:51:40.540Z,1004.66
2017-02-26T07:52:21.011Z,1004.65
2017-02-26T07:53:01.515Z,1004.76
2017-02-26T07:53:42.005Z,1004.62
2017-02-26T07:54:22.458Z,1004.71
2017-02-26T07:55:02.928Z,1004.59
2017-02-26T07:55:43.394Z,1004.68
2017-02-26T07:56:23.907Z,1004.7
2017-02-26T07:57:04.311Z,1004.89
2017-02-26T07:57:44.814Z,1004.75
2017-02-26T07:58:25.422Z,1004.82
2017-02-26T07:59:05.925Z,1004.74
2017-02-26T07:59:46.368Z,1004.8
2017-02-26T08:00:26.945Z,1004.73
2017-02-26T08:01:07.331Z,1004.7
2017-02-26T08:01:47.786Z,1004.78
2017-02-26T08:02:28.269Z,1004.84
2017-02-26T08:03:10.565Z,1004.77
2017-02-26T08:03:51.043Z,1004.95
2017-02-26T08:04:31.498Z,1004.72
2017-02-26T08:05:11.975Z,1004.79
2017-02-26T08:05:52.450Z,1004.77
2017-02-26T08:06:32.907Z,1004.82
2017-02-26T08:07:13.354Z,1004.76
2017-02-26T08:07:53.859Z,1004.78
2017-02-26T08:08:34.328Z,1004.73
2017-02-26T08:09:14.779Z,1004.79
2017-02-26T08:09:55.282Z,1004.81
2017-02-26T08:10:35.784Z,1004.79
2017-02-26T08:11:16.257Z,1004.73
2017-02-26T08:11:56.731Z,1004.82
2017-02-26T08:12:37.168Z,1004.79
2017-02-26T08:13:17.663Z,1004.86
2017-02-26T08:13:58.115Z,1004.94
2017-02-26T08:14:38.569Z,1004.75